sensor_id;sensor_type;location;lat;lon;timestamp;P1;durP1;ratioP1;P2;durP2;ratioP2
47762;SDS011;33526;42.690;23.322;2023-06-10T00:01:36;24.27;;;19.42;;
47762;SDS011;33526;42.690;23.322;2023-06-10T00:04:01;16.67;;;14.00;;
47762;SDS011;33526;42.690;23.322;2023-06-10T00:06:27;20.58;;;15.98;;
47762;SDS011;33526;42.690;23.322;2023-06-10T00:08:53;16.15;;;14.30;;
47762;SDS011;33526;42.690;23.322;2023-06-10T00:11:19;22.15;;;19.00;;
47762;SDS011;33526;42.690;23.322;2023-06-10T00:13:46;26.17;;;20.17;;
47762;SDS011;33526;42.690;23.322;2023-06-10T00:16:12;24.27;;;19.42;;
47762;SDS011;33526;42.690;23.322;2023-06-10T00:18:37;25.35;;;19.40;;
47762;SDS011;33526;42.690;23.322;2023-06-10T00:21:03;15.82;;;13.85;;
47762;SDS011;33526;42.690;23.322;2023-06-10T00:23:30;17.75;;;13.10;;
47762;SDS011;33526;42.690;23.322;2023-06-10T00:25:58;14.07;;;8.85;;
47762;SDS011;33526;42.690;23.322;2023-06-10T00:28:24;11.07;;;7.95;;
47762;SDS011;33526;42.690;23.322;2023-06-10T00:30:50;13.00;;;6.90;;
47762;SDS011;33526;42.690;23.322;2023-06-10T00:33:15;10.93;;;7.65;;
47762;SDS011;33526;42.690;23.322;2023-06-10T00:35:41;10.05;;;7.43;;
47762;SDS011;33526;42.690;23.322;2023-06-10T00:38:06;11.38;;;7.07;;
47762;SDS011;33526;42.690;23.322;2023-06-10T00:40:33;10.57;;;6.70;;
47762;SDS011;33526;42.690;23.322;2023-06-10T00:43:03;7.53;;;6.15;;
47762;SDS011;33526;42.690;23.322;2023-06-10T00:45:29;12.27;;;6.70;;
47762;SDS011;33526;42.690;23.322;2023-06-10T00:47:55;12.38;;;6.45;;
47762;SDS011;33526;42.690;23.322;2023-06-10T00:50:20;20.60;;;6.72;;
47762;SDS011;33526;42.690;23.322;2023-06-10T00:52:46;8.55;;;6.50;;
47762;SDS011;33526;42.690;23.322;2023-06-10T00:55:13;13.30;;;6.90;;
47762;SDS011;33526;42.690;23.322;2023-06-10T00:57:41;10.18;;;6.80;;
47762;SDS011;33526;42.690;23.322;2023-06-10T01:00:09;10.35;;;6.78;;
47762;SDS011;33526;42.690;23.322;2023-06-10T01:02:35;14.63;;;6.38;;
47762;SDS011;33526;42.690;23.322;2023-06-10T01:05:01;11.27;;;6.47;;
47762;SDS011;33526;42.690;23.322;2023-06-10T01:13:12;11.45;;;9.10;;
47762;SDS011;33526;42.690;23.322;2023-06-10T01:15:38;12.77;;;8.87;;
47762;SDS011;33526;42.690;23.322;2023-06-10T01:18:08;14.33;;;9.70;;
47762;SDS011;33526;42.690;23.322;2023-06-10T01:20:39;13.63;;;9.30;;
47762;SDS011;33526;42.690;23.322;2023-06-10T01:23:06;15.93;;;8.82;;
47762;SDS011;33526;42.690;23.322;2023-06-10T01:25:32;15.20;;;10.03;;
47762;SDS011;33526;42.690;23.322;2023-06-10T01:28:12;15.10;;;8.90;;
47762;SDS011;33526;42.690;23.322;2023-06-10T01:33:21;30.73;;;21.20;;
47762;SDS011;33526;42.690;23.322;2023-06-10T01:35:51;34.20;;;25.05;;
47762;SDS011;33526;42.690;23.322;2023-06-10T01:38:18;34.75;;;22.77;;
47762;SDS011;33526;42.690;23.322;2023-06-10T01:40:45;20.30;;;16.55;;
47762;SDS011;33526;42.690;23.322;2023-06-10T01:43:11;28.20;;;18.40;;
47762;SDS011;33526;42.690;23.322;2023-06-10T01:45:37;18.42;;;15.63;;
47762;SDS011;33526;42.690;23.322;2023-06-10T01:48:02;22.02;;;14.85;;
47762;SDS011;33526;42.690;23.322;2023-06-10T01:50:28;26.70;;;15.30;;
47762;SDS011;33526;42.690;23.322;2023-06-10T01:52:53;19.90;;;13.63;;
47762;SDS011;33526;42.690;23.322;2023-06-10T01:55:19;12.65;;;10.57;;
47762;SDS011;33526;42.690;23.322;2023-06-10T01:57:44;17.95;;;10.70;;
47762;SDS011;33526;42.690;23.322;2023-06-10T02:00:10;12.35;;;9.38;;
47762;SDS011;33526;42.690;23.322;2023-06-10T02:02:36;12.23;;;9.13;;
47762;SDS011;33526;42.690;23.322;2023-06-10T02:05:01;12.45;;;8.77;;
47762;SDS011;33526;42.690;23.322;2023-06-10T02:07:26;12.27;;;9.00;;
47762;SDS011;33526;42.690;23.322;2023-06-10T02:09:52;9.93;;;7.93;;
47762;SDS011;33526;42.690;23.322;2023-06-10T02:12:17;9.52;;;7.43;;
47762;SDS011;33526;42.690;23.322;2023-06-10T02:14:43;13.60;;;8.77;;
47762;SDS011;33526;42.690;23.322;2023-06-10T02:17:08;13.00;;;7.97;;
47762;SDS011;33526;42.690;23.322;2023-06-10T02:19:37;15.77;;;8.63;;
47762;SDS011;33526;42.690;23.322;2023-06-10T02:22:07;13.02;;;7.90;;
47762;SDS011;33526;42.690;23.322;2023-06-10T02:24:33;8.50;;;7.15;;
47762;SDS011;33526;42.690;23.322;2023-06-10T02:26:58;12.93;;;7.63;;
47762;SDS011;33526;42.690;23.322;2023-06-10T02:29:25;13.02;;;7.88;;
47762;SDS011;33526;42.690;23.322;2023-06-10T02:31:51;11.68;;;7.93;;
47762;SDS011;33526;42.690;23.322;2023-06-10T02:34:17;14.30;;;7.47;;
47762;SDS011;33526;42.690;23.322;2023-06-10T02:36:43;12.82;;;7.07;;
47762;SDS011;33526;42.690;23.322;2023-06-10T02:39:09;11.50;;;6.85;;
47762;SDS011;33526;42.690;23.322;2023-06-10T02:41:34;8.73;;;6.90;;
47762;SDS011;33526;42.690;23.322;2023-06-10T02:44:00;11.35;;;7.03;;
47762;SDS011;33526;42.690;23.322;2023-06-10T02:46:26;12.23;;;7.63;;
47762;SDS011;33526;42.690;23.322;2023-06-10T02:48:53;14.55;;;7.05;;
47762;SDS011;33526;42.690;23.322;2023-06-10T02:51:19;8.98;;;7.15;;
47762;SDS011;33526;42.690;23.322;2023-06-10T02:53:45;16.80;;;8.20;;
47762;SDS011;33526;42.690;23.322;2023-06-10T02:56:11;11.15;;;7.93;;
47762;SDS011;33526;42.690;23.322;2023-06-10T02:58:37;11.35;;;7.47;;
47762;SDS011;33526;42.690;23.322;2023-06-10T03:01:03;12.13;;;7.47;;
47762;SDS011;33526;42.690;23.322;2023-06-10T03:03:28;16.35;;;8.75;;
47762;SDS011;33526;42.690;23.322;2023-06-10T03:05:55;11.25;;;7.63;;
47762;SDS011;33526;42.690;23.322;2023-06-10T03:08:21;13.18;;;8.07;;
47762;SDS011;33526;42.690;23.322;2023-06-10T03:10:47;10.60;;;8.05;;
47762;SDS011;33526;42.690;23.322;2023-06-10T03:13:12;11.43;;;8.60;;
47762;SDS011;33526;42.690;23.322;2023-06-10T03:15:39;15.52;;;8.68;;
47762;SDS011;33526;42.690;23.322;2023-06-10T03:18:05;16.80;;;9.65;;
47762;SDS011;33526;42.690;23.322;2023-06-10T03:20:32;12.77;;;9.30;;
47762;SDS011;33526;42.690;23.322;2023-06-10T03:23:03;14.55;;;9.55;;
47762;SDS011;33526;42.690;23.322;2023-06-10T03:25:31;13.13;;;10.70;;
47762;SDS011;33526;42.690;23.322;2023-06-10T03:27:57;20.33;;;10.88;;
47762;SDS011;33526;42.690;23.322;2023-06-10T03:30:22;23.30;;;14.80;;
47762;SDS011;33526;42.690;23.322;2023-06-10T03:32:47;17.98;;;12.60;;
47762;SDS011;33526;42.690;23.322;2023-06-10T03:35:14;17.83;;;11.63;;
47762;SDS011;33526;42.690;23.322;2023-06-10T03:37:40;15.65;;;11.60;;
47762;SDS011;33526;42.690;23.322;2023-06-10T03:40:06;21.35;;;12.68;;
47762;SDS011;33526;42.690;23.322;2023-06-10T03:42:33;17.73;;;11.90;;
47762;SDS011;33526;42.690;23.322;2023-06-10T03:44:59;18.67;;;11.63;;
47762;SDS011;33526;42.690;23.322;2023-06-10T03:47:25;11.85;;;10.48;;
47762;SDS011;33526;42.690;23.322;2023-06-10T03:49:51;16.25;;;10.43;;
47762;SDS011;33526;42.690;23.322;2023-06-10T03:52:17;16.65;;;11.18;;
47762;SDS011;33526;42.690;23.322;2023-06-10T03:54:42;14.57;;;10.63;;
47762;SDS011;33526;42.690;23.322;2023-06-10T03:57:08;16.55;;;11.20;;
47762;SDS011;33526;42.690;23.322;2023-06-10T03:59:33;16.27;;;11.10;;
47762;SDS011;33526;42.690;23.322;2023-06-10T04:01:58;15.88;;;9.98;;
47762;SDS011;33526;42.690;23.322;2023-06-10T04:04:28;12.15;;;10.18;;
47762;SDS011;33526;42.690;23.322;2023-06-10T04:06:55;14.98;;;10.13;;
47762;SDS011;33526;42.690;23.322;2023-06-10T04:09:20;15.57;;;10.40;;
47762;SDS011;33526;42.690;23.322;2023-06-10T04:11:46;14.82;;;10.02;;
47762;SDS011;33526;42.690;23.322;2023-06-10T04:14:11;13.88;;;10.15;;
47762;SDS011;33526;42.690;23.322;2023-06-10T04:16:38;14.77;;;9.93;;
47762;SDS011;33526;42.690;23.322;2023-06-10T04:19:04;14.05;;;10.70;;
47762;SDS011;33526;42.690;23.322;2023-06-10T04:21:29;14.30;;;11.35;;
47762;SDS011;33526;42.690;23.322;2023-06-10T04:23:55;13.32;;;11.07;;
47762;SDS011;33526;42.690;23.322;2023-06-10T04:26:20;14.18;;;10.15;;
47762;SDS011;33526;42.690;23.322;2023-06-10T04:28:46;15.37;;;10.67;;
47762;SDS011;33526;42.690;23.322;2023-06-10T04:31:12;12.70;;;10.13;;
47762;SDS011;33526;42.690;23.322;2023-06-10T04:33:37;15.60;;;10.48;;
47762;SDS011;33526;42.690;23.322;2023-06-10T04:36:03;14.15;;;10.32;;
47762;SDS011;33526;42.690;23.322;2023-06-10T04:38:28;16.65;;;10.90;;
47762;SDS011;33526;42.690;23.322;2023-06-10T04:43:21;14.20;;;8.57;;
47762;SDS011;33526;42.690;23.322;2023-06-10T04:45:46;15.75;;;9.75;;
47762;SDS011;33526;42.690;23.322;2023-06-10T04:48:12;11.65;;;9.25;;
47762;SDS011;33526;42.690;23.322;2023-06-10T04:50:38;12.05;;;8.80;;
47762;SDS011;33526;42.690;23.322;2023-06-10T04:53:04;13.90;;;8.52;;
47762;SDS011;33526;42.690;23.322;2023-06-10T04:55:31;9.68;;;8.43;;
47762;SDS011;33526;42.690;23.322;2023-06-10T04:57:56;12.45;;;8.70;;
47762;SDS011;33526;42.690;23.322;2023-06-10T05:00:22;15.88;;;10.82;;
47762;SDS011;33526;42.690;23.322;2023-06-10T05:02:48;15.88;;;9.70;;
47762;SDS011;33526;42.690;23.322;2023-06-10T05:05:15;12.52;;;9.35;;
47762;SDS011;33526;42.690;23.322;2023-06-10T05:10:07;12.45;;;9.43;;
47762;SDS011;33526;42.690;23.322;2023-06-10T05:12:32;13.50;;;10.30;;
47762;SDS011;33526;42.690;23.322;2023-06-10T05:14:58;14.82;;;10.65;;
47762;SDS011;33526;42.690;23.322;2023-06-10T05:17:23;14.02;;;9.65;;
47762;SDS011;33526;42.690;23.322;2023-06-10T05:19:50;17.98;;;10.93;;
47762;SDS011;33526;42.690;23.322;2023-06-10T05:22:16;17.42;;;10.77;;
47762;SDS011;33526;42.690;23.322;2023-06-10T05:24:43;16.20;;;10.38;;
47762;SDS011;33526;42.690;23.322;2023-06-10T05:27:09;13.27;;;11.00;;
47762;SDS011;33526;42.690;23.322;2023-06-10T05:29:35;13.20;;;9.32;;
47762;SDS011;33526;42.690;23.322;2023-06-10T05:32:01;14.77;;;10.88;;
47762;SDS011;33526;42.690;23.322;2023-06-10T05:34:30;14.40;;;10.15;;
47762;SDS011;33526;42.690;23.322;2023-06-10T05:36:56;19.48;;;10.30;;
47762;SDS011;33526;42.690;23.322;2023-06-10T05:39:22;17.15;;;10.52;;
47762;SDS011;33526;42.690;23.322;2023-06-10T05:41:47;13.88;;;7.35;;
47762;SDS011;33526;42.690;23.322;2023-06-10T05:44:13;10.88;;;7.43;;
47762;SDS011;33526;42.690;23.322;2023-06-10T05:46:38;12.60;;;8.30;;
47762;SDS011;33526;42.690;23.322;2023-06-10T05:49:03;15.27;;;7.93;;
47762;SDS011;33526;42.690;23.322;2023-06-10T05:51:29;11.70;;;7.28;;
47762;SDS011;33526;42.690;23.322;2023-06-10T05:53:54;14.38;;;8.15;;
47762;SDS011;33526;42.690;23.322;2023-06-10T05:56:20;12.25;;;7.18;;
47762;SDS011;33526;42.690;23.322;2023-06-10T05:58:47;11.60;;;7.70;;
47762;SDS011;33526;42.690;23.322;2023-06-10T06:01:13;10.63;;;7.57;;
47762;SDS011;33526;42.690;23.322;2023-06-10T06:03:38;10.60;;;7.68;;
47762;SDS011;33526;42.690;23.322;2023-06-10T06:06:05;13.20;;;7.78;;
47762;SDS011;33526;42.690;23.322;2023-06-10T06:10:56;9.52;;;7.43;;
47762;SDS011;33526;42.690;23.322;2023-06-10T06:13:22;14.95;;;7.72;;
47762;SDS011;33526;42.690;23.322;2023-06-10T06:15:49;9.40;;;6.22;;
47762;SDS011;33526;42.690;23.322;2023-06-10T06:18:15;8.55;;;6.40;;
47762;SDS011;33526;42.690;23.322;2023-06-10T06:20:40;10.25;;;7.07;;
47762;SDS011;33526;42.690;23.322;2023-06-10T06:23:06;9.68;;;6.97;;
47762;SDS011;33526;42.690;23.322;2023-06-10T06:25:33;10.30;;;7.43;;
47762;SDS011;33526;42.690;23.322;2023-06-10T06:28:00;13.70;;;6.75;;
47762;SDS011;33526;42.690;23.322;2023-06-10T06:30:26;14.55;;;7.93;;
47762;SDS011;33526;42.690;23.322;2023-06-10T06:32:51;10.52;;;6.65;;
47762;SDS011;33526;42.690;23.322;2023-06-10T06:35:17;8.20;;;5.72;;
47762;SDS011;33526;42.690;23.322;2023-06-10T06:37:42;11.07;;;5.82;;
47762;SDS011;33526;42.690;23.322;2023-06-10T06:40:08;10.98;;;6.57;;
47762;SDS011;33526;42.690;23.322;2023-06-10T06:42:33;11.43;;;7.47;;
47762;SDS011;33526;42.690;23.322;2023-06-10T06:44:59;11.88;;;8.07;;
47762;SDS011;33526;42.690;23.322;2023-06-10T06:47:24;11.55;;;6.70;;
47762;SDS011;33526;42.690;23.322;2023-06-10T06:49:50;13.00;;;7.30;;
47762;SDS011;33526;42.690;23.322;2023-06-10T06:52:15;12.18;;;7.03;;
47762;SDS011;33526;42.690;23.322;2023-06-10T06:54:41;11.05;;;6.60;;
47762;SDS011;33526;42.690;23.322;2023-06-10T06:57:06;9.38;;;6.78;;
47762;SDS011;33526;42.690;23.322;2023-06-10T06:59:32;9.82;;;6.68;;
47762;SDS011;33526;42.690;23.322;2023-06-10T07:01:58;7.90;;;6.05;;
47762;SDS011;33526;42.690;23.322;2023-06-10T07:04:23;9.85;;;6.10;;
47762;SDS011;33526;42.690;23.322;2023-06-10T07:06:50;14.65;;;6.90;;
47762;SDS011;33526;42.690;23.322;2023-06-10T07:09:16;11.00;;;6.75;;
47762;SDS011;33526;42.690;23.322;2023-06-10T07:11:41;10.13;;;6.47;;
47762;SDS011;33526;42.690;23.322;2023-06-10T07:14:07;7.88;;;5.20;;
47762;SDS011;33526;42.690;23.322;2023-06-10T07:16:33;14.25;;;9.57;;
47762;SDS011;33526;42.690;23.322;2023-06-10T07:18:59;10.25;;;5.40;;
47762;SDS011;33526;42.690;23.322;2023-06-10T07:21:24;9.10;;;6.90;;
47762;SDS011;33526;42.690;23.322;2023-06-10T07:23:50;9.93;;;4.30;;
47762;SDS011;33526;42.690;23.322;2023-06-10T07:26:18;9.82;;;4.88;;
47762;SDS011;33526;42.690;23.322;2023-06-10T07:28:44;9.65;;;5.15;;
47762;SDS011;33526;42.690;23.322;2023-06-10T07:31:09;16.27;;;5.60;;
47762;SDS011;33526;42.690;23.322;2023-06-10T07:36:04;10.88;;;6.40;;
47762;SDS011;33526;42.690;23.322;2023-06-10T07:38:30;12.30;;;5.93;;
47762;SDS011;33526;42.690;23.322;2023-06-10T07:40:55;9.43;;;5.72;;
47762;SDS011;33526;42.690;23.322;2023-06-10T07:43:20;9.82;;;4.68;;
47762;SDS011;33526;42.690;23.322;2023-06-10T07:45:46;5.20;;;3.70;;
47762;SDS011;33526;42.690;23.322;2023-06-10T07:48:11;6.22;;;4.65;;
47762;SDS011;33526;42.690;23.322;2023-06-10T07:50:37;7.20;;;4.72;;
47762;SDS011;33526;42.690;23.322;2023-06-10T07:53:02;7.95;;;3.92;;
47762;SDS011;33526;42.690;23.322;2023-06-10T08:00:38;7.18;;;4.38;;
47762;SDS011;33526;42.690;23.322;2023-06-10T08:03:04;9.35;;;4.88;;
47762;SDS011;33526;42.690;23.322;2023-06-10T08:05:29;10.00;;;4.40;;
47762;SDS011;33526;42.690;23.322;2023-06-10T08:07:55;8.38;;;4.55;;
47762;SDS011;33526;42.690;23.322;2023-06-10T08:10:21;8.35;;;4.80;;
47762;SDS011;33526;42.690;23.322;2023-06-10T08:12:46;9.98;;;5.50;;
47762;SDS011;33526;42.690;23.322;2023-06-10T08:15:11;8.93;;;5.35;;
47762;SDS011;33526;42.690;23.322;2023-06-10T08:17:37;6.25;;;4.75;;
47762;SDS011;33526;42.690;23.322;2023-06-10T08:20:03;6.97;;;4.45;;
47762;SDS011;33526;42.690;23.322;2023-06-10T08:22:29;7.07;;;4.18;;
47762;SDS011;33526;42.690;23.322;2023-06-10T08:24:55;6.22;;;3.17;;
47762;SDS011;33526;42.690;23.322;2023-06-10T08:27:25;5.38;;;3.75;;
47762;SDS011;33526;42.690;23.322;2023-06-10T08:29:50;6.95;;;3.30;;
47762;SDS011;33526;42.690;23.322;2023-06-10T08:32:17;10.35;;;5.38;;
47762;SDS011;33526;42.690;23.322;2023-06-10T08:34:43;11.68;;;6.88;;
47762;SDS011;33526;42.690;23.322;2023-06-10T08:37:08;10.32;;;5.47;;
47762;SDS011;33526;42.690;23.322;2023-06-10T08:39:33;8.48;;;4.60;;
47762;SDS011;33526;42.690;23.322;2023-06-10T08:44:53;8.73;;;4.55;;
47762;SDS011;33526;42.690;23.322;2023-06-10T08:47:22;11.80;;;4.18;;
47762;SDS011;33526;42.690;23.322;2023-06-10T08:49:48;15.07;;;5.88;;
47762;SDS011;33526;42.690;23.322;2023-06-10T08:52:17;6.82;;;4.20;;
47762;SDS011;33526;42.690;23.322;2023-06-10T08:54:57;3.92;;;3.25;;
47762;SDS011;33526;42.690;23.322;2023-06-10T08:57:25;6.85;;;3.50;;
47762;SDS011;33526;42.690;23.322;2023-06-10T08:59:52;4.85;;;4.10;;
47762;SDS011;33526;42.690;23.322;2023-06-10T09:02:21;5.50;;;3.92;;
47762;SDS011;33526;42.690;23.322;2023-06-10T09:04:47;10.67;;;5.20;;
47762;SDS011;33526;42.690;23.322;2023-06-10T09:07:15;7.78;;;4.15;;
47762;SDS011;33526;42.690;23.322;2023-06-10T09:09:41;5.72;;;4.22;;
47762;SDS011;33526;42.690;23.322;2023-06-10T09:12:08;6.63;;;3.60;;
47762;SDS011;33526;42.690;23.322;2023-06-10T09:14:34;5.63;;;3.78;;
47762;SDS011;33526;42.690;23.322;2023-06-10T09:17:00;4.67;;;3.73;;
47762;SDS011;33526;42.690;23.322;2023-06-10T09:19:26;7.82;;;3.67;;
47762;SDS011;33526;42.690;23.322;2023-06-10T09:24:18;11.73;;;4.07;;
47762;SDS011;33526;42.690;23.322;2023-06-10T09:26:43;5.00;;;4.18;;
47762;SDS011;33526;42.690;23.322;2023-06-10T09:29:10;5.55;;;3.95;;
47762;SDS011;33526;42.690;23.322;2023-06-10T09:31:37;8.30;;;3.40;;
47762;SDS011;33526;42.690;23.322;2023-06-10T09:34:10;6.43;;;3.33;;
47762;SDS011;33526;42.690;23.322;2023-06-10T09:36:37;7.22;;;3.63;;
47762;SDS011;33526;42.690;23.322;2023-06-10T09:41:38;5.50;;;3.75;;
47762;SDS011;33526;42.690;23.322;2023-06-10T09:44:10;5.30;;;3.47;;
47762;SDS011;33526;42.690;23.322;2023-06-10T09:46:42;6.85;;;3.45;;
47762;SDS011;33526;42.690;23.322;2023-06-10T09:49:10;4.13;;;3.00;;
47762;SDS011;33526;42.690;23.322;2023-06-10T09:51:35;3.78;;;3.10;;
47762;SDS011;33526;42.690;23.322;2023-06-10T09:54:04;5.82;;;4.32;;
47762;SDS011;33526;42.690;23.322;2023-06-10T09:56:35;3.92;;;3.00;;
47762;SDS011;33526;42.690;23.322;2023-06-10T09:59:02;3.88;;;2.63;;
47762;SDS011;33526;42.690;23.322;2023-06-10T10:01:31;5.90;;;3.22;;
47762;SDS011;33526;42.690;23.322;2023-06-10T10:03:58;6.20;;;4.05;;
47762;SDS011;33526;42.690;23.322;2023-06-10T10:06:23;9.05;;;4.65;;
47762;SDS011;33526;42.690;23.322;2023-06-10T10:08:50;3.50;;;2.30;;
47762;SDS011;33526;42.690;23.322;2023-06-10T10:11:16;3.93;;;3.23;;
47762;SDS011;33526;42.690;23.322;2023-06-10T10:13:44;16.45;;;12.40;;
47762;SDS011;33526;42.690;23.322;2023-06-10T10:16:16;11.43;;;8.38;;
47762;SDS011;33526;42.690;23.322;2023-06-10T10:18:54;5.28;;;3.85;;
47762;SDS011;33526;42.690;23.322;2023-06-10T10:21:27;5.15;;;3.55;;
47762;SDS011;33526;42.690;23.322;2023-06-10T10:26:48;4.72;;;3.63;;
47762;SDS011;33526;42.690;23.322;2023-06-10T10:29:28;5.85;;;3.65;;
47762;SDS011;33526;42.690;23.322;2023-06-10T10:32:04;4.53;;;2.90;;
47762;SDS011;33526;42.690;23.322;2023-06-10T10:35:01;5.82;;;2.95;;
47762;SDS011;33526;42.690;23.322;2023-06-10T10:37:35;5.55;;;2.70;;
47762;SDS011;33526;42.690;23.322;2023-06-10T10:40:04;4.38;;;3.05;;
47762;SDS011;33526;42.690;23.322;2023-06-10T10:42:31;5.07;;;3.00;;
47762;SDS011;33526;42.690;23.322;2023-06-10T10:44:58;6.22;;;3.97;;
47762;SDS011;33526;42.690;23.322;2023-06-10T10:47:25;7.82;;;4.57;;
47762;SDS011;33526;42.690;23.322;2023-06-10T10:49:57;3.83;;;3.13;;
47762;SDS011;33526;42.690;23.322;2023-06-10T10:52:24;6.63;;;3.35;;
47762;SDS011;33526;42.690;23.322;2023-06-10T10:54:52;9.75;;;3.42;;
47762;SDS011;33526;42.690;23.322;2023-06-10T10:57:19;50.83;;;32.70;;
47762;SDS011;33526;42.690;23.322;2023-06-10T11:02:18;4.70;;;3.30;;
47762;SDS011;33526;42.690;23.322;2023-06-10T11:04:58;7.95;;;3.78;;
47762;SDS011;33526;42.690;23.322;2023-06-10T11:07:28;6.60;;;3.20;;
47762;SDS011;33526;42.690;23.322;2023-06-10T11:10:01;4.45;;;3.05;;
47762;SDS011;33526;42.690;23.322;2023-06-10T11:15:20;5.53;;;3.95;;
47762;SDS011;33526;42.690;23.322;2023-06-10T11:25:50;7.28;;;3.58;;
47762;SDS011;33526;42.690;23.322;2023-06-10T11:28:19;4.88;;;3.75;;
47762;SDS011;33526;42.690;23.322;2023-06-10T11:30:45;6.72;;;3.72;;
47762;SDS011;33526;42.690;23.322;2023-06-10T11:33:17;8.27;;;3.70;;
47762;SDS011;33526;42.690;23.322;2023-06-10T11:35:43;5.88;;;4.10;;
47762;SDS011;33526;42.690;23.322;2023-06-10T11:38:09;6.82;;;3.90;;
47762;SDS011;33526;42.690;23.322;2023-06-10T11:40:36;6.97;;;4.10;;
47762;SDS011;33526;42.690;23.322;2023-06-10T11:45:29;7.55;;;3.83;;
47762;SDS011;33526;42.690;23.322;2023-06-10T11:47:58;6.07;;;4.03;;
47762;SDS011;33526;42.690;23.322;2023-06-10T11:50:28;7.30;;;3.45;;
47762;SDS011;33526;42.690;23.322;2023-06-10T11:52:57;7.30;;;3.70;;
47762;SDS011;33526;42.690;23.322;2023-06-10T11:55:24;9.43;;;3.97;;
47762;SDS011;33526;42.690;23.322;2023-06-10T11:58:13;5.03;;;3.42;;
47762;SDS011;33526;42.690;23.322;2023-06-10T12:03:15;6.60;;;3.78;;
47762;SDS011;33526;42.690;23.322;2023-06-10T12:05:57;7.60;;;3.22;;
47762;SDS011;33526;42.690;23.322;2023-06-10T12:08:27;4.13;;;3.30;;
47762;SDS011;33526;42.690;23.322;2023-06-10T12:10:53;5.93;;;3.27;;
47762;SDS011;33526;42.690;23.322;2023-06-10T12:13:20;6.20;;;3.00;;
47762;SDS011;33526;42.690;23.322;2023-06-10T12:15:46;6.10;;;2.92;;
47762;SDS011;33526;42.690;23.322;2023-06-10T12:18:22;3.27;;;2.73;;
47762;SDS011;33526;42.690;23.322;2023-06-10T12:20:48;4.38;;;2.50;;
47762;SDS011;33526;42.690;23.322;2023-06-10T12:23:16;5.05;;;3.70;;
47762;SDS011;33526;42.690;23.322;2023-06-10T12:25:53;6.43;;;2.92;;
47762;SDS011;33526;42.690;23.322;2023-06-10T12:28:23;3.07;;;2.57;;
47762;SDS011;33526;42.690;23.322;2023-06-10T12:30:50;3.33;;;2.55;;
47762;SDS011;33526;42.690;23.322;2023-06-10T12:33:18;2.57;;;2.37;;
47762;SDS011;33526;42.690;23.322;2023-06-10T12:35:48;4.13;;;3.00;;
47762;SDS011;33526;42.690;23.322;2023-06-10T12:38:14;4.68;;;3.10;;
47762;SDS011;33526;42.690;23.322;2023-06-10T12:40:47;6.45;;;2.83;;
47762;SDS011;33526;42.690;23.322;2023-06-10T12:43:12;3.73;;;2.70;;
47762;SDS011;33526;42.690;23.322;2023-06-10T12:45:44;4.30;;;2.67;;
47762;SDS011;33526;42.690;23.322;2023-06-10T12:48:19;5.80;;;3.20;;
47762;SDS011;33526;42.690;23.322;2023-06-10T12:50:55;4.25;;;3.03;;
47762;SDS011;33526;42.690;23.322;2023-06-10T12:53:23;5.53;;;3.00;;
47762;SDS011;33526;42.690;23.322;2023-06-10T12:55:50;4.10;;;3.03;;
47762;SDS011;33526;42.690;23.322;2023-06-10T12:58:16;5.47;;;3.47;;
47762;SDS011;33526;42.690;23.322;2023-06-10T13:00:42;4.83;;;2.90;;
47762;SDS011;33526;42.690;23.322;2023-06-10T13:03:08;3.67;;;2.83;;
47762;SDS011;33526;42.690;23.322;2023-06-10T13:05:37;8.25;;;3.13;;
47762;SDS011;33526;42.690;23.322;2023-06-10T13:08:04;6.85;;;3.03;;
47762;SDS011;33526;42.690;23.322;2023-06-10T13:10:32;6.68;;;3.30;;
47762;SDS011;33526;42.690;23.322;2023-06-10T13:12:57;8.30;;;3.27;;
47762;SDS011;33526;42.690;23.322;2023-06-10T13:15:24;5.03;;;3.17;;
47762;SDS011;33526;42.690;23.322;2023-06-10T13:20:17;12.65;;;6.13;;
47762;SDS011;33526;42.690;23.322;2023-06-10T13:22:43;8.63;;;4.10;;
47762;SDS011;33526;42.690;23.322;2023-06-10T13:25:09;7.63;;;4.15;;
47762;SDS011;33526;42.690;23.322;2023-06-10T13:27:37;9.15;;;4.30;;
47762;SDS011;33526;42.690;23.322;2023-06-10T13:30:07;7.63;;;4.18;;
47762;SDS011;33526;42.690;23.322;2023-06-10T13:32:35;6.72;;;3.80;;
47762;SDS011;33526;42.690;23.322;2023-06-10T13:35:01;8.38;;;4.22;;
47762;SDS011;33526;42.690;23.322;2023-06-10T13:37:27;8.73;;;3.70;;
47762;SDS011;33526;42.690;23.322;2023-06-10T13:39:52;8.32;;;4.13;;
47762;SDS011;33526;42.690;23.322;2023-06-10T13:42:18;10.00;;;4.35;;
47762;SDS011;33526;42.690;23.322;2023-06-10T13:44:44;9.77;;;4.70;;
47762;SDS011;33526;42.690;23.322;2023-06-10T13:47:09;10.75;;;4.80;;
47762;SDS011;33526;42.690;23.322;2023-06-10T13:49:35;12.65;;;4.15;;
47762;SDS011;33526;42.690;23.322;2023-06-10T13:52:01;8.55;;;4.07;;
47762;SDS011;33526;42.690;23.322;2023-06-10T13:54:27;9.47;;;4.83;;
47762;SDS011;33526;42.690;23.322;2023-06-10T13:56:53;7.50;;;4.63;;
47762;SDS011;33526;42.690;23.322;2023-06-10T13:59:18;8.35;;;5.03;;
47762;SDS011;33526;42.690;23.322;2023-06-10T14:01:45;8.00;;;4.85;;
47762;SDS011;33526;42.690;23.322;2023-06-10T14:04:10;10.48;;;4.05;;
47762;SDS011;33526;42.690;23.322;2023-06-10T14:06:36;9.05;;;4.72;;
47762;SDS011;33526;42.690;23.322;2023-06-10T14:09:01;6.38;;;4.45;;
47762;SDS011;33526;42.690;23.322;2023-06-10T14:11:27;7.53;;;4.30;;
47762;SDS011;33526;42.690;23.322;2023-06-10T14:13:53;7.45;;;4.18;;
47762;SDS011;33526;42.690;23.322;2023-06-10T14:16:21;5.25;;;4.38;;
47762;SDS011;33526;42.690;23.322;2023-06-10T14:18:47;8.02;;;4.00;;
47762;SDS011;33526;42.690;23.322;2023-06-10T14:21:12;9.10;;;5.78;;
47762;SDS011;33526;42.690;23.322;2023-06-10T14:23:37;8.60;;;4.63;;
47762;SDS011;33526;42.690;23.322;2023-06-10T14:26:03;7.13;;;5.22;;
47762;SDS011;33526;42.690;23.322;2023-06-10T14:28:30;6.65;;;4.22;;
47762;SDS011;33526;42.690;23.322;2023-06-10T14:30:56;8.40;;;4.43;;
47762;SDS011;33526;42.690;23.322;2023-06-10T14:33:22;13.98;;;4.25;;
47762;SDS011;33526;42.690;23.322;2023-06-10T14:35:48;6.20;;;3.95;;
47762;SDS011;33526;42.690;23.322;2023-06-10T14:38:13;7.40;;;4.57;;
47762;SDS011;33526;42.690;23.322;2023-06-10T14:40:39;5.18;;;4.15;;
47762;SDS011;33526;42.690;23.322;2023-06-10T14:43:04;4.47;;;3.90;;
47762;SDS011;33526;42.690;23.322;2023-06-10T14:45:35;6.03;;;4.75;;
47762;SDS011;33526;42.690;23.322;2023-06-10T14:48:01;8.07;;;3.90;;
47762;SDS011;33526;42.690;23.322;2023-06-10T14:50:26;5.57;;;4.40;;
47762;SDS011;33526;42.690;23.322;2023-06-10T14:52:52;8.37;;;6.30;;
47762;SDS011;33526;42.690;23.322;2023-06-10T14:55:17;4.77;;;4.00;;
47762;SDS011;33526;42.690;23.322;2023-06-10T14:57:43;6.37;;;4.47;;
47762;SDS011;33526;42.690;23.322;2023-06-10T15:00:08;5.80;;;3.97;;
47762;SDS011;33526;42.690;23.322;2023-06-10T15:02:36;5.68;;;4.07;;
47762;SDS011;33526;42.690;23.322;2023-06-10T15:05:01;6.53;;;3.95;;
47762;SDS011;33526;42.690;23.322;2023-06-10T15:09:53;5.00;;;4.00;;
47762;SDS011;33526;42.690;23.322;2023-06-10T15:12:19;7.63;;;5.00;;
47762;SDS011;33526;42.690;23.322;2023-06-10T15:14:44;3.90;;;3.50;;
47762;SDS011;33526;42.690;23.322;2023-06-10T15:17:10;5.78;;;4.22;;
47762;SDS011;33526;42.690;23.322;2023-06-10T15:19:35;6.80;;;3.80;;
47762;SDS011;33526;42.690;23.322;2023-06-10T15:22:00;6.07;;;4.15;;